Terminal Aerodrome Forecast
Issued by NWS

Home | Current Version | Previous Version | Graphics & Text | Print | Product List | Glossary On
Versions: 1 2 3 4 5 6 7 8 9 10 11 12 13 14 15 16 17 18
331
FTUS43 KBIS 062339
TAFMOT
TAF
KMOT 062339Z 0700/0724 26023G32KT P6SM SCT080
     FM070100 26028G39KT P6SM SCT030 BKN050
     FM070600 30031G47KT P6SM VCSH SCT030 BKN050
     FM071300 30033G50KT 5SM -SHSN BLSN OVC025=

USA.gov is the U.S. government's official web portal to all federal, state and local government web resources and services.